createdAt,value
2018-11-12T00:00:35.912Z,955.27
2018-11-12T00:01:35.901Z,955.29
2018-11-12T00:02:35.888Z,955.25
2018-11-12T00:03:35.876Z,955.27
2018-11-12T00:04:35.867Z,955.3
2018-11-12T00:05:35.853Z,955.31
2018-11-12T00:06:35.842Z,955.31
2018-11-12T00:07:35.831Z,955.34
2018-11-12T00:08:35.818Z,955.38
2018-11-12T00:09:35.804Z,955.35
2018-11-12T00:10:35.792Z,955.32
2018-11-12T00:11:35.782Z,955.32
2018-11-12T00:12:35.770Z,955.28
2018-11-12T00:13:35.758Z,955.27
2018-11-12T00:14:35.743Z,955.26
2018-11-12T00:15:35.733Z,955.22
2018-11-12T00:16:35.722Z,955.22
2018-11-12T00:17:35.715Z,955.2
2018-11-12T00:18:35.696Z,955.23
2018-11-12T00:19:35.687Z,955.29
2018-11-12T00:20:35.674Z,955.3
2018-11-12T00:21:35.661Z,955.26
2018-11-12T00:22:35.651Z,955.24
2018-11-12T00:23:35.638Z,955.3
2018-11-12T00:24:35.627Z,955.34
2018-11-12T00:25:35.614Z,955.34
2018-11-12T00:26:35.602Z,955.27
2018-11-12T00:27:35.593Z,955.33
2018-11-12T00:28:35.578Z,955.37
2018-11-12T00:29:35.569Z,955.35
2018-11-12T00:30:35.556Z,955.36
2018-11-12T00:31:35.544Z,955.38
2018-11-12T00:32:35.530Z,955.39
2018-11-12T00:33:35.519Z,955.39
2018-11-12T00:34:35.510Z,955.41
2018-11-12T00:35:35.494Z,955.4
2018-11-12T00:36:35.481Z,955.4
2018-11-12T00:37:35.471Z,955.45
2018-11-12T00:38:35.458Z,955.46
2018-11-12T00:39:35.447Z,955.45
2018-11-12T00:40:35.435Z,955.43
2018-11-12T00:41:35.421Z,955.46
2018-11-12T00:42:35.411Z,955.5
2018-11-12T00:43:35.398Z,955.49
2018-11-12T00:44:35.387Z,955.49
2018-11-12T00:45:35.376Z,955.45
2018-11-12T00:46:35.362Z,955.5
2018-11-12T00:47:35.351Z,955.47
2018-11-12T00:48:35.338Z,955.48
2018-11-12T00:49:35.326Z,955.48
2018-11-12T00:50:35.315Z,955.43
2018-11-12T00:51:35.303Z,955.45
2018-11-12T00:52:35.294Z,955.49
2018-11-12T00:53:35.285Z,955.55
2018-11-12T00:54:35.267Z,955.54
2018-11-12T00:55:35.255Z,955.51
2018-11-12T00:56:35.243Z,955.51
2018-11-12T00:57:35.231Z,955.49
2018-11-12T00:58:35.219Z,955.47
2018-11-12T00:59:35.207Z,955.55
2018-11-12T01:00:35.195Z,955.53
2018-11-12T01:01:35.183Z,955.46
2018-11-12T01:02:35.170Z,955.51
2018-11-12T01:03:35.160Z,955.47
2018-11-12T01:04:35.148Z,955.42
2018-11-12T01:05:35.143Z,955.44
2018-11-12T01:06:35.124Z,955.4
2018-11-12T01:07:35.114Z,955.43
2018-11-12T01:08:35.098Z,955.39
2018-11-12T01:09:35.089Z,955.4
2018-11-12T01:10:35.077Z,955.46
2018-11-12T01:11:35.064Z,955.45
2018-11-12T01:12:35.057Z,955.43
2018-11-12T01:13:35.041Z,955.45
2018-11-12T01:14:35.029Z,955.43
2018-11-12T01:15:35.025Z,955.47
2018-11-12T01:16:35.010Z,955.49
2018-11-12T01:17:34.999Z,955.5
2018-11-12T01:18:34.981Z,955.49
2018-11-12T01:19:34.969Z,955.53
2018-11-12T01:20:34.958Z,955.49
2018-11-12T01:21:34.946Z,955.48
2018-11-12T01:22:34.935Z,955.48
2018-11-12T01:23:34.921Z,955.5
2018-11-12T01:24:34.909Z,955.55
2018-11-12T01:25:34.898Z,955.52
2018-11-12T01:26:34.884Z,955.5
2018-11-12T01:27:34.872Z,955.52
2018-11-12T01:28:34.864Z,955.51
2018-11-12T01:29:34.849Z,955.55
2018-11-12T01:30:34.851Z,955.5
2018-11-12T01:31:34.826Z,955.53
2018-11-12T01:32:34.813Z,955.55
2018-11-12T01:33:34.801Z,955.47
2018-11-12T01:34:34.789Z,955.44
2018-11-12T01:35:34.784Z,955.43
2018-11-12T01:36:34.773Z,955.45
2018-11-12T01:37:34.753Z,955.4
2018-11-12T01:38:34.741Z,955.39
2018-11-12T01:39:34.731Z,955.42
2018-11-12T01:40:34.717Z,955.37
2018-11-12T01:41:34.708Z,955.43
2018-11-12T01:42:34.694Z,955.46
2018-11-12T01:43:34.728Z,955.5
2018-11-12T01:44:34.667Z,955.55
2018-11-12T01:45:34.656Z,955.53
2018-11-12T01:46:34.645Z,955.5
2018-11-12T01:47:34.633Z,955.43
2018-11-12T01:48:34.622Z,955.39
2018-11-12T01:49:34.608Z,955.39
2018-11-12T01:50:34.598Z,955.39
2018-11-12T01:51:34.586Z,955.34
2018-11-12T01:52:34.573Z,955.34
2018-11-12T01:53:34.564Z,955.31
2018-11-12T01:54:34.549Z,955.28
2018-11-12T01:55:34.535Z,955.27
2018-11-12T01:56:34.524Z,955.31
2018-11-12T01:57:34.512Z,955.27
2018-11-12T01:58:34.542Z,955.25
2018-11-12T01:59:34.488Z,955.3
2018-11-12T02:00:34.476Z,955.27
2018-11-12T02:01:34.505Z,955.3
2018-11-12T02:02:34.451Z,955.29
2018-11-12T02:03:34.439Z,955.31
2018-11-12T02:04:34.427Z,955.34
2018-11-12T02:05:34.425Z,955.34
2018-11-12T02:06:34.402Z,955.29
2018-11-12T02:07:34.390Z,955.28
2018-11-12T02:08:34.398Z,955.3
2018-11-12T02:09:34.369Z,955.27
2018-11-12T02:10:34.353Z,955.27
2018-11-12T02:11:34.346Z,955.22
2018-11-12T02:12:34.337Z,955.18
2018-11-12T02:13:34.315Z,955.21
2018-11-12T02:14:34.313Z,955.23
2018-11-12T02:15:34.292Z,955.22
2018-11-12T02:16:34.281Z,955.17
2018-11-12T02:17:34.268Z,955.22
2018-11-12T02:18:34.262Z,955.18
2018-11-12T02:19:34.243Z,955.17
2018-11-12T02:20:34.233Z,955.17
2018-11-12T02:21:34.261Z,955.18
2018-11-12T02:22:34.285Z,955.13
2018-11-12T02:23:34.196Z,955.12
2018-11-12T02:24:34.183Z,955.09
2018-11-12T02:25:34.171Z,955.08
2018-11-12T02:26:34.160Z,955.08
2018-11-12T02:27:34.147Z,955.06
2018-11-12T02:28:34.135Z,955.07
2018-11-12T02:29:34.136Z,955.02
2018-11-12T02:30:34.164Z,955.02
2018-11-12T02:31:34.100Z,955.01
2018-11-12T02:32:34.095Z,954.99
2018-11-12T02:33:34.082Z,954.98
2018-11-12T02:34:34.064Z,955
2018-11-12T02:35:34.052Z,955
2018-11-12T02:37:34.031Z,955.01
2018-11-12T02:38:34.016Z,955.02
2018-11-12T02:39:34.010Z,955.01
2018-11-12T02:40:33.991Z,955.02
2018-11-12T02:41:33.983Z,955.03
2018-11-12T02:42:33.972Z,955.03
2018-11-12T02:43:33.961Z,954.97
2018-11-12T02:44:33.962Z,954.93
2018-11-12T02:45:33.931Z,954.96
2018-11-12T02:46:33.919Z,954.98
2018-11-12T02:47:33.908Z,954.94
2018-11-12T02:48:33.896Z,954.93
2018-11-12T02:49:33.884Z,954.93
2018-11-12T02:50:33.873Z,954.96
2018-11-12T02:51:33.860Z,954.99
2018-11-12T02:52:33.857Z,954.97
2018-11-12T02:53:33.837Z,954.97
2018-11-12T02:54:33.824Z,954.98
2018-11-12T02:55:33.812Z,955.01
2018-11-12T02:56:33.800Z,954.95
2018-11-12T02:57:33.831Z,954.96
2018-11-12T02:58:33.778Z,954.97
2018-11-12T02:59:33.766Z,955
2018-11-12T03:00:33.754Z,955
2018-11-12T03:01:33.742Z,954.95
2018-11-12T03:02:33.744Z,954.97
2018-11-12T03:03:33.721Z,954.99
2018-11-12T03:04:33.709Z,954.95
2018-11-12T03:05:33.696Z,954.96
2018-11-12T03:06:33.684Z,954.99
2018-11-12T03:07:33.706Z,954.95
2018-11-12T03:08:33.662Z,954.95
2018-11-12T03:09:33.648Z,955.03
2018-11-12T03:10:33.638Z,954.98
2018-11-12T03:11:33.628Z,955.02
2018-11-12T03:12:33.614Z,954.98
2018-11-12T03:13:33.606Z,954.96
2018-11-12T03:14:33.591Z,954.9
2018-11-12T03:15:33.581Z,954.92
2018-11-12T03:16:33.568Z,954.91
2018-11-12T03:17:33.556Z,954.94
2018-11-12T03:18:33.548Z,954.93
2018-11-12T03:19:33.533Z,954.91
2018-11-12T03:20:33.520Z,954.91
2018-11-12T03:21:33.510Z,954.86
2018-11-12T03:22:33.497Z,954.8
2018-11-12T03:23:33.492Z,954.78
2018-11-12T03:24:33.475Z,954.77
2018-11-12T03:25:33.464Z,954.79
2018-11-12T03:26:33.452Z,954.77
2018-11-12T03:27:33.453Z,954.75
2018-11-12T03:28:33.430Z,954.81
2018-11-12T03:29:33.418Z,954.83
2018-11-12T03:30:33.407Z,954.82
2018-11-12T03:31:33.394Z,954.85
2018-11-12T03:32:33.385Z,954.86
2018-11-12T03:33:33.372Z,954.87
2018-11-12T03:34:33.360Z,954.9
2018-11-12T03:35:33.349Z,954.9
2018-11-12T03:36:33.337Z,954.89
2018-11-12T03:37:33.325Z,954.92
2018-11-12T03:38:33.313Z,954.93
2018-11-12T03:39:33.323Z,954.89
2018-11-12T03:40:33.292Z,954.9
2018-11-12T03:41:33.279Z,954.89
2018-11-12T03:42:33.267Z,954.97
2018-11-12T03:43:33.257Z,954.91
2018-11-12T03:44:33.246Z,954.97
2018-11-12T03:45:33.233Z,955.01
2018-11-12T03:46:33.227Z,955.03
2018-11-12T03:47:33.212Z,955.06
2018-11-12T03:48:33.198Z,955.02
2018-11-12T03:49:33.189Z,955
2018-11-12T03:50:33.177Z,955
2018-11-12T03:51:33.165Z,954.98
2018-11-12T03:52:33.155Z,954.96
2018-11-12T03:53:33.143Z,954.98
2018-11-12T03:54:33.134Z,955.05
2018-11-12T03:55:33.121Z,955.02
2018-11-12T03:56:33.108Z,955.01
2018-11-12T03:57:33.099Z,955.05
2018-11-12T03:58:33.088Z,955.01
2018-11-12T03:59:33.076Z,955.04
2018-11-12T04:00:33.066Z,955.02
2018-11-12T04:01:33.055Z,955.04
2018-11-12T04:02:33.043Z,955.08
2018-11-12T04:03:33.031Z,955.02
2018-11-12T04:04:33.020Z,955.06
2018-11-12T04:05:33.010Z,955.03
2018-11-12T04:06:33.002Z,955.04
2018-11-12T04:07:32.986Z,955.1
2018-11-12T04:08:32.976Z,955.08
2018-11-12T04:09:32.970Z,955.14
2018-11-12T04:10:32.952Z,955.16
2018-11-12T04:11:32.943Z,955.19
2018-11-12T04:12:32.932Z,955.19
2018-11-12T04:13:32.919Z,955.18
2018-11-12T04:14:32.919Z,955.14
2018-11-12T04:15:32.899Z,955.11
2018-11-12T04:16:32.890Z,955.11
2018-11-12T04:17:32.877Z,955.1
2018-11-12T04:18:32.865Z,955.12
2018-11-12T04:19:32.852Z,955.07
2018-11-12T04:20:32.843Z,955.05
2018-11-12T04:21:32.830Z,955.05
2018-11-12T04:22:32.821Z,955.06
2018-11-12T04:23:32.811Z,955.02
2018-11-12T04:24:32.797Z,955.01
2018-11-12T04:25:32.787Z,955.03
2018-11-12T04:26:32.775Z,955.05
2018-11-12T04:27:32.765Z,955.04
2018-11-12T04:28:32.753Z,955.03
2018-11-12T04:29:32.740Z,955.04
2018-11-12T04:30:32.733Z,955.07
2018-11-12T04:31:32.721Z,955.03
2018-11-12T04:32:32.708Z,955.07
2018-11-12T04:33:32.704Z,955.06
2018-11-12T04:34:32.686Z,955.01
2018-11-12T04:35:32.676Z,955.03
2018-11-12T04:36:32.663Z,954.99
2018-11-12T04:37:32.652Z,954.99
2018-11-12T04:38:32.642Z,954.96
2018-11-12T04:39:32.630Z,954.93
2018-11-12T04:40:32.618Z,954.93
2018-11-12T04:41:32.607Z,954.93
2018-11-12T04:42:32.595Z,954.89
2018-11-12T04:43:32.583Z,954.95
2018-11-12T04:44:32.573Z,954.94
2018-11-12T04:45:32.567Z,954.89
2018-11-12T04:46:32.551Z,954.92
2018-11-12T04:47:32.539Z,954.95
2018-11-12T04:48:32.528Z,954.9
2018-11-12T04:49:32.516Z,954.91
2018-11-12T04:50:32.506Z,954.84
2018-11-12T04:51:32.494Z,954.85
2018-11-12T04:52:32.482Z,954.84
2018-11-12T04:53:32.564Z,954.8
2018-11-12T04:54:32.461Z,954.82
2018-11-12T04:55:32.449Z,954.79
2018-11-12T04:56:32.439Z,954.8
2018-11-12T04:57:32.426Z,954.82
2018-11-12T04:58:32.417Z,954.86
2018-11-12T04:59:32.409Z,954.86
2018-11-12T05:00:32.393Z,954.94
2018-11-12T05:01:32.382Z,954.9
2018-11-12T05:02:32.372Z,954.89
2018-11-12T05:03:32.360Z,954.95
2018-11-12T05:04:32.349Z,954.98
2018-11-12T05:05:32.337Z,954.99
2018-11-12T05:06:32.326Z,954.98
2018-11-12T05:07:32.464Z,955.02
2018-11-12T05:08:32.311Z,955.05
2018-11-12T05:09:32.293Z,955.03
2018-11-12T05:10:32.282Z,955.03
2018-11-12T05:11:32.270Z,955.04
2018-11-12T05:12:32.263Z,955.1
2018-11-12T05:13:32.247Z,955.06
2018-11-12T05:14:32.237Z,955.06
2018-11-12T05:15:32.228Z,955.07
2018-11-12T05:16:32.277Z,955.05
2018-11-12T05:17:32.204Z,955.09
2018-11-12T05:18:32.193Z,955.1
2018-11-12T05:19:32.182Z,955.12
2018-11-12T05:20:32.170Z,955.14
2018-11-12T05:21:32.158Z,955.09
2018-11-12T05:22:32.148Z,955.08
2018-11-12T05:23:32.139Z,955.08
2018-11-12T05:24:32.127Z,955.1
2018-11-12T05:25:32.124Z,955.14
2018-11-12T05:26:32.103Z,955.1
2018-11-12T05:27:32.091Z,955.14
2018-11-12T05:28:32.080Z,955.2
2018-11-12T05:29:32.071Z,955.1
2018-11-12T05:30:32.059Z,955.13
2018-11-12T05:31:32.048Z,955.17
2018-11-12T05:32:32.037Z,955.21
2018-11-12T05:33:32.024Z,955.19
2018-11-12T05:34:32.015Z,955.18
2018-11-12T05:35:32.004Z,955.17
2018-11-12T05:36:31.992Z,955.22
2018-11-12T05:37:32.038Z,955.23
2018-11-12T05:38:31.970Z,955.22
2018-11-12T05:39:31.958Z,955.25
2018-11-12T05:40:31.947Z,955.25
2018-11-12T05:41:31.936Z,955.23
2018-11-12T05:42:31.926Z,955.26
2018-11-12T05:43:31.913Z,955.2
2018-11-12T05:44:31.903Z,955.22
2018-11-12T05:45:31.893Z,955.23
2018-11-12T05:46:31.879Z,955.22
2018-11-12T05:47:31.870Z,955.26
2018-11-12T05:48:31.860Z,955.26
2018-11-12T05:49:31.848Z,955.21
2018-11-12T05:50:31.839Z,955.21
2018-11-12T05:51:31.868Z,955.18
2018-11-12T05:52:31.816Z,955.2
2018-11-12T05:53:31.805Z,955.21
2018-11-12T05:54:31.793Z,955.15
2018-11-12T05:55:31.781Z,955.15
2018-11-12T05:56:31.770Z,955.19
2018-11-12T05:57:31.759Z,955.18
2018-11-12T05:58:31.748Z,955.13
2018-11-12T05:59:31.740Z,955.14
2018-11-12T06:00:31.725Z,955.12
2018-11-12T06:01:31.714Z,955.13
2018-11-12T06:02:31.703Z,955.12
2018-11-12T06:03:31.693Z,955.07
2018-11-12T06:04:31.681Z,955.12
2018-11-12T06:05:31.669Z,955.1
2018-11-12T06:06:31.659Z,955.06
2018-11-12T06:07:31.655Z,955.13
2018-11-12T06:08:31.636Z,955.1
2018-11-12T06:09:31.626Z,955.07
2018-11-12T06:10:31.615Z,955.08
2018-11-12T06:11:31.602Z,955.09
2018-11-12T06:12:31.591Z,955.12
2018-11-12T06:13:31.581Z,955.1
2018-11-12T06:14:31.570Z,955.12
2018-11-12T06:15:31.557Z,955.06
2018-11-12T06:16:31.552Z,955.06
2018-11-12T06:17:31.544Z,955.08
2018-11-12T06:18:31.524Z,955.07
2018-11-12T06:19:31.517Z,955.09
2018-11-12T06:20:31.504Z,955.06
2018-11-12T06:21:31.498Z,955.05
2018-11-12T06:22:31.520Z,955.09
2018-11-12T06:23:31.474Z,955.09
2018-11-12T06:24:31.458Z,955.05
2018-11-12T06:25:31.448Z,955.03
2018-11-12T06:26:31.436Z,955.12
2018-11-12T06:27:31.426Z,955.09
2018-11-12T06:28:31.414Z,955.05
2018-11-12T06:29:31.402Z,955.1
2018-11-12T06:30:31.395Z,955.09
2018-11-12T06:31:31.380Z,955.13
2018-11-12T06:32:31.370Z,955.14
2018-11-12T06:33:31.358Z,955.14
2018-11-12T06:34:31.347Z,955.19
2018-11-12T06:35:31.336Z,955.18
2018-11-12T06:36:31.337Z,955.16
2018-11-12T06:37:31.315Z,955.19
2018-11-12T06:38:31.307Z,955.2
2018-11-12T06:39:31.293Z,955.27
2018-11-12T06:40:31.281Z,955.28
2018-11-12T06:41:31.271Z,955.32
2018-11-12T06:42:31.334Z,955.37
2018-11-12T06:43:31.249Z,955.35
2018-11-12T06:44:31.238Z,955.36
2018-11-12T06:45:31.227Z,955.42
2018-11-12T06:46:31.217Z,955.39
2018-11-12T06:47:31.204Z,955.37
2018-11-12T06:48:31.200Z,955.44
2018-11-12T06:49:31.184Z,955.51
2018-11-12T06:50:31.173Z,955.56
2018-11-12T06:51:31.161Z,955.51
2018-11-12T06:52:31.151Z,955.51
2018-11-12T06:53:31.173Z,955.57
2018-11-12T06:54:31.129Z,955.57
2018-11-12T06:55:31.118Z,955.55
2018-11-12T06:56:31.107Z,955.55
2018-11-12T06:57:31.097Z,955.56
2018-11-12T06:58:31.085Z,955.57
2018-11-12T06:59:31.076Z,955.66
2018-11-12T07:00:31.068Z,955.57
2018-11-12T07:01:31.059Z,955.57
2018-11-12T07:02:31.042Z,955.59
2018-11-12T07:03:31.033Z,955.59
2018-11-12T07:04:31.024Z,955.65
2018-11-12T07:05:31.015Z,955.6
2018-11-12T07:06:31.070Z,955.67
2018-11-12T07:07:30.992Z,955.71
2018-11-12T07:08:30.982Z,955.71
2018-11-12T07:09:30.968Z,955.7
2018-11-12T07:10:30.958Z,955.76
2018-11-12T07:11:30.951Z,955.73
2018-11-12T07:12:30.937Z,955.68
2018-11-12T07:13:30.931Z,955.72
2018-11-12T07:14:30.917Z,955.71
2018-11-12T07:15:30.908Z,955.7
2018-11-12T07:16:30.896Z,955.7
2018-11-12T07:17:30.887Z,955.7
2018-11-12T07:18:30.875Z,955.69
2018-11-12T07:19:30.865Z,955.65
2018-11-12T07:20:30.853Z,955.68
2018-11-12T07:21:30.844Z,955.66
2018-11-12T07:22:30.834Z,955.63
2018-11-12T07:23:30.824Z,955.6
2018-11-12T07:24:30.815Z,955.53
2018-11-12T07:25:30.802Z,955.55
2018-11-12T07:26:30.792Z,955.56
2018-11-12T07:27:30.783Z,955.52
2018-11-12T07:28:30.770Z,955.56
2018-11-12T07:29:30.761Z,955.55
2018-11-12T07:30:30.754Z,955.57
2018-11-12T07:31:30.741Z,955.57
2018-11-12T07:32:30.730Z,955.5
2018-11-12T07:33:30.720Z,955.55
2018-11-12T07:34:30.710Z,955.58
2018-11-12T07:35:30.700Z,955.56
2018-11-12T07:36:30.690Z,955.52
2018-11-12T07:37:30.680Z,955.51
2018-11-12T07:38:30.669Z,955.49
2018-11-12T07:39:30.660Z,955.48
2018-11-12T07:40:30.654Z,955.48
2018-11-12T07:41:30.646Z,955.48
2018-11-12T07:42:30.630Z,955.48
2018-11-12T07:43:30.620Z,955.38
2018-11-12T07:44:30.609Z,955.43
2018-11-12T07:45:30.604Z,955.45
2018-11-12T07:46:30.590Z,955.44
2018-11-12T07:47:30.579Z,955.42
2018-11-12T07:48:30.574Z,955.38
2018-11-12T07:49:30.561Z,955.43
2018-11-12T07:50:30.551Z,955.45
2018-11-12T07:51:30.695Z,955.45
2018-11-12T07:52:30.532Z,955.46
2018-11-12T07:53:30.523Z,955.47
2018-11-12T07:54:30.510Z,955.44
2018-11-12T07:55:30.502Z,955.47
2018-11-12T07:56:30.723Z,955.43
2018-11-12T07:57:30.481Z,955.51
2018-11-12T07:58:30.475Z,955.5
2018-11-12T07:59:30.466Z,955.42
2018-11-12T08:00:30.455Z,955.46
2018-11-12T08:01:30.447Z,955.49
2018-11-12T08:02:30.435Z,955.48
2018-11-12T08:03:30.530Z,955.5
2018-11-12T08:04:30.416Z,955.51
2018-11-12T08:05:30.406Z,955.48
2018-11-12T08:06:30.401Z,955.5
2018-11-12T08:07:30.388Z,955.46
2018-11-12T08:08:30.379Z,955.52
2018-11-12T08:09:30.490Z,955.58
2018-11-12T08:10:30.362Z,955.54
2018-11-12T08:11:30.350Z,955.53
2018-11-12T08:12:30.342Z,955.55
2018-11-12T08:13:30.332Z,955.59
2018-11-12T08:14:30.378Z,955.6
2018-11-12T08:15:30.317Z,955.61
2018-11-12T08:16:30.305Z,955.62
2018-11-12T08:17:30.580Z,955.63
2018-11-12T08:18:30.287Z,955.64
2018-11-12T08:19:30.277Z,955.6
2018-11-12T08:20:30.268Z,955.59
2018-11-12T08:21:30.302Z,955.52
2018-11-12T08:22:30.302Z,955.57
2018-11-12T08:23:30.240Z,955.58
2018-11-12T08:24:30.271Z,955.56
2018-11-12T08:25:30.229Z,955.56
2018-11-12T08:26:30.212Z,955.56
2018-11-12T08:27:30.310Z,955.61
2018-11-12T08:28:30.196Z,955.52
2018-11-12T08:29:30.185Z,955.58
2018-11-12T08:30:30.286Z,955.58
2018-11-12T08:31:30.167Z,955.56
2018-11-12T08:32:30.160Z,955.54
2018-11-12T08:33:30.147Z,955.54
2018-11-12T08:34:30.142Z,955.58
2018-11-12T08:35:30.131Z,955.62
2018-11-12T08:36:30.203Z,955.57
2018-11-12T08:37:30.111Z,955.61
2018-11-12T08:38:30.103Z,955.51
2018-11-12T08:39:30.184Z,955.52
2018-11-12T08:40:30.234Z,955.5
2018-11-12T08:41:30.075Z,955.51
2018-11-12T08:42:30.066Z,955.56
2018-11-12T08:43:30.056Z,955.51
2018-11-12T08:44:30.048Z,955.49
2018-11-12T08:45:30.039Z,955.51
2018-11-12T08:46:30.031Z,955.5
2018-11-12T08:47:30.022Z,955.54
2018-11-12T08:48:30.083Z,955.53
2018-11-12T08:49:30.071Z,955.54
2018-11-12T08:50:29.995Z,955.59
2018-11-12T08:51:29.985Z,955.48
2018-11-12T08:52:29.976Z,955.53
2018-11-12T08:53:29.966Z,955.57
2018-11-12T08:54:30.021Z,955.6
2018-11-12T08:55:29.974Z,955.54
2018-11-12T08:56:29.939Z,955.54
2018-11-12T08:57:29.931Z,955.55
2018-11-12T08:58:29.922Z,955.58
2018-11-12T08:59:29.968Z,955.61
2018-11-12T09:00:29.904Z,955.64
2018-11-12T09:01:29.895Z,955.64
2018-11-12T09:02:29.889Z,955.61
2018-11-12T09:03:29.877Z,955.63
2018-11-12T09:04:29.868Z,955.58
2018-11-12T09:05:29.863Z,955.58
2018-11-12T09:06:29.850Z,955.58
2018-11-12T09:07:29.842Z,955.62
2018-11-12T09:08:29.833Z,955.61
2018-11-12T09:09:29.825Z,955.61
2018-11-12T09:10:29.831Z,955.63
2018-11-12T09:11:29.806Z,955.61
2018-11-12T09:12:29.797Z,955.59
2018-11-12T09:13:29.788Z,955.54
2018-11-12T09:14:29.781Z,955.57
2018-11-12T09:15:29.803Z,955.59
2018-11-12T09:16:29.763Z,955.57
2018-11-12T09:17:29.753Z,955.57
2018-11-12T09:18:29.746Z,955.55
2018-11-12T09:19:29.735Z,955.57
2018-11-12T09:20:29.738Z,955.58
2018-11-12T09:21:29.719Z,955.6
2018-11-12T09:22:29.710Z,955.63
2018-11-12T09:23:29.703Z,955.63
2018-11-12T09:24:29.693Z,955.64
2018-11-12T09:25:29.684Z,955.61
2018-11-12T09:26:29.675Z,955.59
2018-11-12T09:27:29.667Z,955.6
2018-11-12T09:28:29.658Z,955.57
2018-11-12T09:29:29.711Z,955.55
2018-11-12T09:30:29.640Z,955.58
2018-11-12T09:31:29.888Z,955.5
2018-11-12T09:32:29.624Z,955.54
2018-11-12T09:33:29.616Z,955.53
2018-11-12T09:34:29.625Z,955.5
2018-11-12T09:35:29.601Z,955.56
2018-11-12T09:36:29.622Z,955.53
2018-11-12T09:37:29.723Z,955.5
2018-11-12T09:38:29.601Z,955.47
2018-11-12T09:39:29.593Z,955.48
2018-11-12T09:40:29.559Z,955.5
2018-11-12T09:41:29.583Z,955.55
2018-11-12T09:42:29.623Z,955.56
2018-11-12T09:43:29.531Z,955.57
2018-11-12T09:44:29.526Z,955.58
2018-11-12T09:45:29.516Z,955.57
2018-11-12T09:46:29.514Z,955.6
2018-11-12T09:47:29.500Z,955.6
2018-11-12T09:48:29.492Z,955.64
2018-11-12T09:49:29.484Z,955.61
2018-11-12T09:50:29.476Z,955.57
2018-11-12T09:51:29.469Z,955.57
2018-11-12T09:52:29.461Z,955.56
2018-11-12T09:53:29.469Z,955.55
2018-11-12T09:54:29.542Z,955.57
2018-11-12T09:55:29.513Z,955.53
2018-11-12T09:56:29.488Z,955.58
2018-11-12T09:57:29.420Z,955.51
2018-11-12T09:58:29.412Z,955.48
2018-11-12T09:59:29.534Z,955.47
2018-11-12T10:00:29.649Z,955.52
2018-11-12T10:01:29.990Z,955.5
2018-11-12T10:02:30.249Z,955.47
2018-11-12T10:03:30.526Z,955.46
2018-11-12T10:04:30.756Z,955.47
2018-11-12T10:05:31.032Z,955.47
2018-11-12T10:06:30.970Z,955.5
2018-11-12T10:07:31.709Z,955.44
2018-11-12T10:08:32.097Z,955.49
2018-11-12T10:09:31.839Z,955.5
2018-11-12T10:10:32.414Z,955.52
2018-11-12T10:11:31.778Z,955.56
2018-11-12T10:12:32.021Z,955.58
2018-11-12T10:13:30.965Z,955.59
2018-11-12T10:14:32.141Z,955.65
2018-11-12T10:15:32.516Z,955.58
2018-11-12T10:16:32.381Z,955.58
2018-11-12T10:17:31.555Z,955.59
2018-11-12T10:18:29.265Z,955.64
2018-11-12T10:19:29.260Z,955.62
2018-11-12T10:20:29.249Z,955.65
2018-11-12T10:21:29.244Z,955.64
2018-11-12T10:22:29.246Z,955.61
2018-11-12T10:23:29.230Z,955.59
2018-11-12T10:24:29.223Z,955.62
2018-11-12T10:25:29.216Z,955.62
2018-11-12T10:26:29.276Z,955.61
2018-11-12T10:27:29.202Z,955.59
2018-11-12T10:28:29.194Z,955.6
2018-11-12T10:29:29.189Z,955.56
2018-11-12T10:30:29.186Z,955.53
2018-11-12T10:31:29.176Z,955.58
2018-11-12T10:32:29.169Z,955.56
2018-11-12T10:33:29.163Z,955.53
2018-11-12T10:34:29.156Z,955.52
2018-11-12T10:35:29.154Z,955.48
2018-11-12T10:36:29.144Z,955.51
2018-11-12T10:37:29.137Z,955.53
2018-11-12T10:38:29.132Z,955.53
2018-11-12T10:39:29.124Z,955.49
2018-11-12T10:40:29.119Z,955.52
2018-11-12T10:41:29.112Z,955.47
2018-11-12T10:42:29.167Z,955.53
2018-11-12T10:43:29.101Z,955.52
2018-11-12T10:44:29.095Z,955.47
2018-11-12T10:45:29.087Z,955.47
2018-11-12T10:46:29.081Z,955.51
2018-11-12T10:47:29.076Z,955.49
2018-11-12T10:48:29.153Z,955.48
2018-11-12T10:49:29.063Z,955.45
2018-11-12T10:50:29.055Z,955.46
2018-11-12T10:51:29.058Z,955.45
2018-11-12T10:52:29.044Z,955.48
2018-11-12T10:53:29.076Z,955.42
2018-11-12T10:54:29.172Z,955.4
2018-11-12T10:55:29.290Z,955.37
2018-11-12T10:56:29.020Z,955.4
2018-11-12T10:57:29.014Z,955.36
2018-11-12T10:58:29.051Z,955.43
2018-11-12T10:59:29.024Z,955.4
2018-11-12T11:00:28.995Z,955.42
2018-11-12T11:01:28.995Z,955.4
2018-11-12T11:02:28.987Z,955.37
2018-11-12T11:03:28.976Z,955.38
2018-11-12T11:04:28.972Z,955.39
2018-11-12T11:05:28.966Z,955.38
2018-11-12T11:06:28.959Z,955.37
2018-11-12T11:07:28.952Z,955.33
2018-11-12T11:08:28.947Z,955.34
2018-11-12T11:09:28.941Z,955.34
2018-11-12T11:10:28.938Z,955.33
2018-11-12T11:11:28.929Z,955.34
2018-11-12T11:12:28.923Z,955.34
2018-11-12T11:13:28.918Z,955.35
2018-11-12T11:14:28.911Z,955.34
2018-11-12T11:15:28.911Z,955.3
2018-11-12T11:16:28.901Z,955.38
2018-11-12T11:17:28.900Z,955.4
2018-11-12T11:18:28.888Z,955.33
2018-11-12T11:19:28.886Z,955.34
2018-11-12T11:20:28.877Z,955.35
2018-11-12T11:21:28.870Z,955.36
2018-11-12T11:22:28.866Z,955.3
2018-11-12T11:23:28.860Z,955.35
2018-11-12T11:24:28.863Z,955.28
2018-11-12T11:25:28.850Z,955.31
2018-11-12T11:26:28.842Z,955.27
2018-11-12T11:27:28.837Z,955.22
2018-11-12T11:28:28.832Z,955.23
2018-11-12T11:29:28.825Z,955.24
2018-11-12T11:30:28.818Z,955.22
2018-11-12T11:31:28.814Z,955.22
2018-11-12T11:32:28.807Z,955.2
2018-11-12T11:33:28.800Z,955.17
2018-11-12T11:34:28.796Z,955.21
2018-11-12T11:35:28.790Z,955.2
2018-11-12T11:36:28.785Z,955.17
2018-11-12T11:37:28.779Z,955.13
2018-11-12T11:38:28.773Z,955.11
2018-11-12T11:39:28.768Z,955.14
2018-11-12T11:40:28.871Z,955.1
2018-11-12T11:41:28.756Z,955.03
2018-11-12T11:42:28.751Z,955.06
2018-11-12T11:43:28.743Z,955.11
2018-11-12T11:44:28.745Z,955.09
2018-11-12T11:45:28.734Z,955.05
2018-11-12T11:46:28.727Z,955.07
2018-11-12T11:47:28.846Z,955.06
2018-11-12T11:48:28.716Z,955.05
2018-11-12T11:49:28.710Z,955.08
2018-11-12T11:50:28.851Z,955.08
2018-11-12T11:51:28.698Z,955.06
2018-11-12T11:52:28.692Z,955.04
2018-11-12T11:53:28.687Z,954.99
2018-11-12T11:54:28.683Z,954.99
2018-11-12T11:55:28.675Z,954.97
2018-11-12T11:56:28.734Z,954.94
2018-11-12T11:57:28.698Z,954.95
2018-11-12T11:58:28.656Z,954.88
2018-11-12T11:59:28.658Z,954.84
2018-11-12T12:00:28.648Z,954.96
2018-11-12T12:01:28.641Z,954.96
2018-11-12T12:02:28.639Z,955
2018-11-12T12:03:28.628Z,954.97
2018-11-12T12:04:28.621Z,955
2018-11-12T12:05:28.615Z,955.04
2018-11-12T12:06:28.610Z,955.07
2018-11-12T12:07:28.604Z,954.99
2018-11-12T12:08:28.607Z,954.95
2018-11-12T12:09:28.592Z,954.98
2018-11-12T12:10:28.587Z,955.01
2018-11-12T12:11:28.587Z,954.91
2018-11-12T12:12:28.577Z,954.96
2018-11-12T12:13:28.568Z,954.91
2018-11-12T12:14:28.563Z,954.94
2018-11-12T12:15:28.556Z,954.99
2018-11-12T12:16:28.549Z,954.94
2018-11-12T12:17:28.553Z,954.92
2018-11-12T12:18:28.592Z,954.91
2018-11-12T12:19:28.533Z,954.93
2018-11-12T12:20:28.525Z,954.91
2018-11-12T12:21:28.519Z,954.85
2018-11-12T12:22:28.513Z,954.83
2018-11-12T12:23:28.507Z,954.88
2018-11-12T12:24:28.521Z,954.78
2018-11-12T12:25:28.556Z,954.79
2018-11-12T12:26:28.489Z,954.88
2018-11-12T12:27:28.483Z,954.87
2018-11-12T12:28:28.475Z,954.82
2018-11-12T12:29:28.470Z,954.85
2018-11-12T12:30:28.464Z,954.82
2018-11-12T12:31:28.456Z,954.82
2018-11-12T12:32:28.450Z,954.88